Genesee Depot, WI (53127)

2:59 AM CDT on August 28, 2015 (GMT -0500)
GENESEE | | Change Station
CLOSE
Current Station
Personal Weather Station
Location: GENESEE DEPOT, WI
Elevation: 931 ft
Nearby Weather Stations

Elev 931 ft 42.97 °N, 88.36 °W | Updated 5 seconds ago

Partly Cloudy
Partly Cloudy
52.8 °F
Feels Like 52.8 °F
N
0.0
Wind Variable Wind from NW
Gusts 1.0 mph

Today
High -- | Low -- °F
--% Chance of Precip.
Yesterday
High -- | Low -- °F
Precip. -- in
6:13 AM 7:35 PM
Waxing Gibbous, 97% visible
Pressure 30.13 in
Visibility 10.0 miles
Clouds Scattered Clouds 8500 ft
Scattered Clouds 10000 ft
Dew Point 52 °F
Humidity 97%
Rainfall 0.00 in
Snow Depth Not available.
UV 0.0 out of 12
Pollen 8.90 out of 12
Air Quality Not available.
Flu Activity Not available.
METAR KUES 280735Z AUTO 18004KT 10SM SCT085 SCT100 13/11 A3013 RMK AO2
Pressure 30.13 in
Visibility 10.0 miles
Clouds Scattered Clouds 8500 ft
Scattered Clouds 10000 ft
Dew Point 52 °F
Humidity 97%
Rainfall 0.00 in
Snow Depth Not available.
UV 0.0 out of 12
Pollen 8.90 out of 12
Air Quality Not available.
Flu Activity Not available.
METAR KUES 280735Z AUTO 18004KT 10SM SCT085 SCT100 13/11 A3013 RMK AO2

10-Day Weather Forecast

×

Almanac

Astronomy

Aug. 28, 2015 Rise Set
Actual Time
Civil Twilight
Nautical Twilight
Astronomical Twilight
Moon
Length of Visible Light
Length of Day
Tomorrow will be .
, % of the Moon is Illuminated

Today's Extremes

State Highs State Lows

Community

WunderPhotos

Upload Photos

1,850,348 photos uploaded!

WunderBlogs® & News

Nearby

Air Quality

  Air Quality AQ Index Pollutant
Not available.

Snow Depth

Station Depth Elevation

Earthquake Activity

City Distance Mag. Time & Date
Minimum magnitude displayed is 2.5.

Coastal Water Temperatures

Place Temperature

Stations

Nearby Weather Stations

Station Location Temp. Windchill Dew Point Humidity Wind Precip. Elev Updated Type